sensor_id;sensor_type;location;lat;lon;timestamp;pressure;altitude;pressure_sealevel;temperature;humidity
84703;BME280;74927;50.988;11.318;2024-01-07T00:01:01;98949.75;;;1.36;90.66
84703;BME280;74927;50.988;11.318;2024-01-07T00:03:27;98962.47;;;1.15;92.33
84703;BME280;74927;50.988;11.318;2024-01-07T00:05:53;98963.09;;;1.29;92.89
84703;BME280;74927;50.988;11.318;2024-01-07T00:08:18;98967.56;;;1.33;92.27
84703;BME280;74927;50.988;11.318;2024-01-07T00:10:44;98964.25;;;1.36;91.66
84703;BME280;74927;50.988;11.318;2024-01-07T00:13:09;98967.31;;;1.47;91.32
84703;BME280;74927;50.988;11.318;2024-01-07T00:15:35;98968.78;;;1.42;91.36
84703;BME280;74927;50.988;11.318;2024-01-07T00:18:00;98970.06;;;1.32;91.72
84703;BME280;74927;50.988;11.318;2024-01-07T00:20:25;98976.88;;;1.31;92.16
84703;BME280;74927;50.988;11.318;2024-01-07T00:22:51;98978.94;;;1.40;91.71
84703;BME280;74927;50.988;11.318;2024-01-07T00:25:16;98982.53;;;1.44;90.80
84703;BME280;74927;50.988;11.318;2024-01-07T00:27:43;98985.19;;;1.27;91.57
84703;BME280;74927;50.988;11.318;2024-01-07T00:30:09;98982.72;;;1.29;91.29
84703;BME280;74927;50.988;11.318;2024-01-07T00:32:35;98991.06;;;1.25;91.35
84703;BME280;74927;50.988;11.318;2024-01-07T00:35:00;98986.56;;;1.39;90.58
84703;BME280;74927;50.988;11.318;2024-01-07T00:37:26;98996.75;;;1.37;90.28
84703;BME280;74927;50.988;11.318;2024-01-07T00:39:51;99000.97;;;1.36;90.23
84703;BME280;74927;50.988;11.318;2024-01-07T00:42:17;99000.28;;;1.39;89.80
84703;BME280;74927;50.988;11.318;2024-01-07T00:44:42;98993.38;;;1.38;90.09
84703;BME280;74927;50.988;11.318;2024-01-07T00:47:08;98996.09;;;1.41;89.80
84703;BME280;74927;50.988;11.318;2024-01-07T00:49:33;98993.22;;;1.35;90.11
84703;BME280;74927;50.988;11.318;2024-01-07T00:51:59;99007.31;;;1.25;90.40
84703;BME280;74927;50.988;11.318;2024-01-07T00:54:24;99008.41;;;1.30;90.80
84703;BME280;74927;50.988;11.318;2024-01-07T00:56:50;99005.09;;;1.33;90.22
84703;BME280;74927;50.988;11.318;2024-01-07T00:59:15;99004.56;;;1.40;89.81
84703;BME280;74927;50.988;11.318;2024-01-07T01:01:41;99021.81;;;1.44;89.38
84703;BME280;74927;50.988;11.318;2024-01-07T01:04:07;99014.38;;;1.31;89.76
84703;BME280;74927;50.988;11.318;2024-01-07T01:06:33;99014.44;;;1.13;90.42
84703;BME280;74927;50.988;11.318;2024-01-07T01:08:59;99016.25;;;1.15;90.99
84703;BME280;74927;50.988;11.318;2024-01-07T01:11:24;99014.34;;;1.11;89.97
84703;BME280;74927;50.988;11.318;2024-01-07T01:13:53;99021.69;;;1.04;90.72
84703;BME280;74927;50.988;11.318;2024-01-07T01:16:18;99020.66;;;1.00;91.13
84703;BME280;74927;50.988;11.318;2024-01-07T01:18:47;99022.38;;;1.19;91.06
84703;BME280;74927;50.988;11.318;2024-01-07T01:21:13;99019.69;;;1.16;90.51
84703;BME280;74927;50.988;11.318;2024-01-07T01:23:38;99014.78;;;1.21;90.00
84703;BME280;74927;50.988;11.318;2024-01-07T01:26:04;99018.28;;;1.23;90.26
84703;BME280;74927;50.988;11.318;2024-01-07T01:28:29;99016.25;;;1.15;90.16
84703;BME280;74927;50.988;11.318;2024-01-07T01:30:55;99024.72;;;1.14;90.57
84703;BME280;74927;50.988;11.318;2024-01-07T01:33:20;99027.22;;;1.13;90.18
84703;BME280;74927;50.988;11.318;2024-01-07T01:35:46;99033.81;;;1.08;90.56
84703;BME280;74927;50.988;11.318;2024-01-07T01:38:11;99031.91;;;1.04;90.20
84703;BME280;74927;50.988;11.318;2024-01-07T01:40:37;99038.69;;;1.03;90.37
84703;BME280;74927;50.988;11.318;2024-01-07T01:43:02;99042.28;;;1.07;90.68
84703;BME280;74927;50.988;11.318;2024-01-07T01:45:27;99050.63;;;1.03;90.12
84703;BME280;74927;50.988;11.318;2024-01-07T01:47:53;99044.63;;;1.02;89.71
84703;BME280;74927;50.988;11.318;2024-01-07T01:50:19;99050.03;;;1.08;88.95
84703;BME280;74927;50.988;11.318;2024-01-07T01:52:45;99054.56;;;1.14;88.59
84703;BME280;74927;50.988;11.318;2024-01-07T01:55:11;99053.09;;;1.01;88.54
84703;BME280;74927;50.988;11.318;2024-01-07T01:57:38;99056.78;;;1.06;88.81
84703;BME280;74927;50.988;11.318;2024-01-07T02:00:05;99063.72;;;1.09;88.24
84703;BME280;74927;50.988;11.318;2024-01-07T02:02:31;99067.31;;;1.12;88.13
84703;BME280;74927;50.988;11.318;2024-01-07T02:05:02;99067.53;;;1.17;87.78
84703;BME280;74927;50.988;11.318;2024-01-07T02:07:29;99063.38;;;1.19;87.83
84703;BME280;74927;50.988;11.318;2024-01-07T02:09:55;99074.56;;;1.21;87.61
84703;BME280;74927;50.988;11.318;2024-01-07T02:12:21;99073.31;;;1.13;88.13
84703;BME280;74927;50.988;11.318;2024-01-07T02:14:46;99077.84;;;1.19;87.88
84703;BME280;74927;50.988;11.318;2024-01-07T02:17:12;99079.38;;;1.15;87.81
84703;BME280;74927;50.988;11.318;2024-01-07T02:19:37;99087.22;;;1.00;87.67
84703;BME280;74927;50.988;11.318;2024-01-07T02:22:03;99088.06;;;1.01;87.74
84703;BME280;74927;50.988;11.318;2024-01-07T02:24:29;99094.22;;;1.04;86.98
84703;BME280;74927;50.988;11.318;2024-01-07T02:26:56;99092.47;;;1.03;86.30
84703;BME280;74927;50.988;11.318;2024-01-07T02:29:21;99094.63;;;0.77;87.40
84703;BME280;74927;50.988;11.318;2024-01-07T02:31:47;99096.97;;;0.73;87.60
84703;BME280;74927;50.988;11.318;2024-01-07T02:34:12;99102.69;;;0.85;87.75
84703;BME280;74927;50.988;11.318;2024-01-07T02:36:38;99106.03;;;0.84;86.94
84703;BME280;74927;50.988;11.318;2024-01-07T02:39:03;99101.16;;;0.89;86.54
84703;BME280;74927;50.988;11.318;2024-01-07T02:41:29;99087.50;;;0.54;85.86
84703;BME280;74927;50.988;11.318;2024-01-07T02:43:54;99107.63;;;0.64;87.49
84703;BME280;74927;50.988;11.318;2024-01-07T02:46:20;99109.41;;;0.83;85.93
84703;BME280;74927;50.988;11.318;2024-01-07T02:48:46;99113.25;;;0.75;85.26
84703;BME280;74927;50.988;11.318;2024-01-07T02:51:11;99116.84;;;0.78;86.66
84703;BME280;74927;50.988;11.318;2024-01-07T02:53:37;99114.88;;;0.73;86.10
84703;BME280;74927;50.988;11.318;2024-01-07T02:56:02;99120.06;;;0.74;84.99
84703;BME280;74927;50.988;11.318;2024-01-07T02:58:28;99119.19;;;0.74;85.63
84703;BME280;74927;50.988;11.318;2024-01-07T03:00:53;99117.09;;;0.83;85.20
84703;BME280;74927;50.988;11.318;2024-01-07T03:03:19;99117.50;;;0.74;85.35
84703;BME280;74927;50.988;11.318;2024-01-07T03:05:44;99118.56;;;0.62;86.43
84703;BME280;74927;50.988;11.318;2024-01-07T03:08:10;99126.50;;;0.66;86.31
84703;BME280;74927;50.988;11.318;2024-01-07T03:10:35;99122.81;;;0.61;86.57
84703;BME280;74927;50.988;11.318;2024-01-07T03:13:01;99128.50;;;0.55;86.59
84703;BME280;74927;50.988;11.318;2024-01-07T03:15:26;99131.28;;;0.60;86.86
84703;BME280;74927;50.988;11.318;2024-01-07T03:17:52;99123.88;;;0.48;86.97
84703;BME280;74927;50.988;11.318;2024-01-07T03:20:17;99135.94;;;0.51;86.79
84703;BME280;74927;50.988;11.318;2024-01-07T03:22:43;99129.53;;;0.59;86.46
84703;BME280;74927;50.988;11.318;2024-01-07T03:25:08;99125.84;;;0.54;87.10
84703;BME280;74927;50.988;11.318;2024-01-07T03:27:34;99126.09;;;0.58;86.95
84703;BME280;74927;50.988;11.318;2024-01-07T03:29:59;99128.88;;;0.63;86.93
84703;BME280;74927;50.988;11.318;2024-01-07T03:32:25;99133.13;;;0.63;87.17
84703;BME280;74927;50.988;11.318;2024-01-07T03:34:50;99130.97;;;0.54;87.03
84703;BME280;74927;50.988;11.318;2024-01-07T03:37:16;99133.53;;;0.54;86.76
84703;BME280;74927;50.988;11.318;2024-01-07T03:39:42;99141.69;;;0.47;86.89
84703;BME280;74927;50.988;11.318;2024-01-07T03:42:07;99144.88;;;0.43;86.63
84703;BME280;74927;50.988;11.318;2024-01-07T03:44:37;99146.28;;;0.36;85.99
84703;BME280;74927;50.988;11.318;2024-01-07T03:47:04;99148.56;;;0.48;86.05
84703;BME280;74927;50.988;11.318;2024-01-07T03:49:29;99152.00;;;0.32;85.40
84703;BME280;74927;50.988;11.318;2024-01-07T03:51:55;99142.50;;;0.29;85.93
84703;BME280;74927;50.988;11.318;2024-01-07T03:54:20;99146.09;;;0.33;85.20
84703;BME280;74927;50.988;11.318;2024-01-07T03:56:46;99150.75;;;0.40;85.21
84703;BME280;74927;50.988;11.318;2024-01-07T03:59:11;99149.13;;;0.26;86.04
84703;BME280;74927;50.988;11.318;2024-01-07T04:01:38;99152.50;;;0.25;85.39
84703;BME280;74927;50.988;11.318;2024-01-07T04:04:03;99152.88;;;0.16;85.77
84703;BME280;74927;50.988;11.318;2024-01-07T04:06:29;99160.63;;;0.17;85.92
84703;BME280;74927;50.988;11.318;2024-01-07T04:08:54;99165.75;;;0.17;85.20
84703;BME280;74927;50.988;11.318;2024-01-07T04:11:20;99163.09;;;0.16;85.04
84703;BME280;74927;50.988;11.318;2024-01-07T04:13:45;99165.50;;;0.13;85.88
84703;BME280;74927;50.988;11.318;2024-01-07T04:16:18;99165.50;;;0.13;85.20
84703;BME280;74927;50.988;11.318;2024-01-07T04:18:44;99169.81;;;0.14;85.16
84703;BME280;74927;50.988;11.318;2024-01-07T04:21:10;99175.09;;;0.17;84.75
84703;BME280;74927;50.988;11.318;2024-01-07T04:23:35;99180.13;;;0.15;85.11
84703;BME280;74927;50.988;11.318;2024-01-07T04:26:01;99179.09;;;0.12;85.50
84703;BME280;74927;50.988;11.318;2024-01-07T04:28:26;99178.28;;;0.13;86.04
84703;BME280;74927;50.988;11.318;2024-01-07T04:30:52;99186.09;;;-0.01;85.81
84703;BME280;74927;50.988;11.318;2024-01-07T04:33:18;99184.34;;;-0.02;86.84
84703;BME280;74927;50.988;11.318;2024-01-07T04:35:43;99190.88;;;-0.07;87.25
84703;BME280;74927;50.988;11.318;2024-01-07T04:38:09;99193.59;;;-0.04;87.35
84703;BME280;74927;50.988;11.318;2024-01-07T04:40:34;99191.38;;;0.03;87.61
84703;BME280;74927;50.988;11.318;2024-01-07T04:43:00;99196.81;;;0.09;88.05
84703;BME280;74927;50.988;11.318;2024-01-07T04:45:25;99201.91;;;0.09;87.19
84703;BME280;74927;50.988;11.318;2024-01-07T04:47:51;99206.72;;;0.03;86.72
84703;BME280;74927;50.988;11.318;2024-01-07T04:50:16;99203.88;;;-0.02;86.14
84703;BME280;74927;50.988;11.318;2024-01-07T04:52:45;99216.44;;;-0.07;85.89
84703;BME280;74927;50.988;11.318;2024-01-07T04:55:11;99215.59;;;-0.22;85.68
84703;BME280;74927;50.988;11.318;2024-01-07T04:57:37;99215.53;;;-0.38;86.56
84703;BME280;74927;50.988;11.318;2024-01-07T05:00:03;99222.03;;;-0.44;86.63
84703;BME280;74927;50.988;11.318;2024-01-07T05:02:29;99220.28;;;-0.45;86.11
84703;BME280;74927;50.988;11.318;2024-01-07T05:04:54;99225.41;;;-0.45;87.09
84703;BME280;74927;50.988;11.318;2024-01-07T05:07:20;99228.94;;;-0.43;86.97
84703;BME280;74927;50.988;11.318;2024-01-07T05:09:45;99231.56;;;-0.41;86.49
84703;BME280;74927;50.988;11.318;2024-01-07T05:12:11;99229.78;;;-0.27;86.24
84703;BME280;74927;50.988;11.318;2024-01-07T05:14:36;99239.28;;;-0.25;85.83
84703;BME280;74927;50.988;11.318;2024-01-07T05:17:02;99232.84;;;-0.18;84.56
84703;BME280;74927;50.988;11.318;2024-01-07T05:19:28;99239.22;;;-0.41;85.21
84703;BME280;74927;50.988;11.318;2024-01-07T05:21:54;99243.28;;;-0.45;84.78
84703;BME280;74927;50.988;11.318;2024-01-07T05:24:19;99246.38;;;-0.50;85.45
84703;BME280;74927;50.988;11.318;2024-01-07T05:26:45;99255.97;;;-0.61;84.85
84703;BME280;74927;50.988;11.318;2024-01-07T05:29:11;99251.38;;;-0.52;85.35
84703;BME280;74927;50.988;11.318;2024-01-07T05:31:40;99256.50;;;-0.52;85.12
84703;BME280;74927;50.988;11.318;2024-01-07T05:34:06;99257.97;;;-0.55;84.87
84703;BME280;74927;50.988;11.318;2024-01-07T05:36:31;99269.06;;;-0.55;84.74
84703;BME280;74927;50.988;11.318;2024-01-07T05:38:57;99276.56;;;-0.58;84.84
84703;BME280;74927;50.988;11.318;2024-01-07T05:41:22;99267.41;;;-0.69;85.18
84703;BME280;74927;50.988;11.318;2024-01-07T05:43:48;99273.38;;;-0.84;85.30
84703;BME280;74927;50.988;11.318;2024-01-07T05:46:13;99268.47;;;-0.81;85.54
84703;BME280;74927;50.988;11.318;2024-01-07T05:48:44;99271.78;;;-0.82;85.46
84703;BME280;74927;50.988;11.318;2024-01-07T05:51:10;99280.22;;;-0.83;84.74
84703;BME280;74927;50.988;11.318;2024-01-07T05:53:36;99278.69;;;-0.81;85.49
84703;BME280;74927;50.988;11.318;2024-01-07T05:56:01;99287.47;;;-0.75;85.36
84703;BME280;74927;50.988;11.318;2024-01-07T05:58:28;99287.81;;;-0.84;83.91
84703;BME280;74927;50.988;11.318;2024-01-07T06:00:54;99290.53;;;-0.81;84.84
84703;BME280;74927;50.988;11.318;2024-01-07T06:03:19;99292.22;;;-0.82;86.16
84703;BME280;74927;50.988;11.318;2024-01-07T06:05:45;99297.31;;;-0.82;85.25
84703;BME280;74927;50.988;11.318;2024-01-07T06:08:11;99309.66;;;-0.74;85.66
84703;BME280;74927;50.988;11.318;2024-01-07T06:10:36;99308.31;;;-0.68;84.83
84703;BME280;74927;50.988;11.318;2024-01-07T06:13:02;99310.59;;;-0.87;84.24
84703;BME280;74927;50.988;11.318;2024-01-07T06:15:28;99310.94;;;-0.81;84.70
84703;BME280;74927;50.988;11.318;2024-01-07T06:17:54;99316.84;;;-0.97;83.88
84703;BME280;74927;50.988;11.318;2024-01-07T06:20:20;99317.00;;;-0.94;84.30
84703;BME280;74927;50.988;11.318;2024-01-07T06:22:46;99323.25;;;-0.89;83.75
84703;BME280;74927;50.988;11.318;2024-01-07T06:25:11;99329.94;;;-0.91;84.87
84703;BME280;74927;50.988;11.318;2024-01-07T06:27:38;99340.06;;;-0.92;85.05
84703;BME280;74927;50.988;11.318;2024-01-07T06:30:05;99344.50;;;-0.90;84.60
84703;BME280;74927;50.988;11.318;2024-01-07T06:32:30;99342.00;;;-1.03;84.49
84703;BME280;74927;50.988;11.318;2024-01-07T06:34:57;99352.19;;;-1.03;84.32
84703;BME280;74927;50.988;11.318;2024-01-07T06:37:23;99350.16;;;-1.09;84.01
84703;BME280;74927;50.988;11.318;2024-01-07T06:39:48;99352.19;;;-1.03;83.24
84703;BME280;74927;50.988;11.318;2024-01-07T06:42:14;99356.69;;;-0.99;83.79
84703;BME280;74927;50.988;11.318;2024-01-07T06:44:39;99359.28;;;-1.12;82.78
84703;BME280;74927;50.988;11.318;2024-01-07T06:47:05;99360.06;;;-1.13;83.55
84703;BME280;74927;50.988;11.318;2024-01-07T06:49:30;99368.13;;;-1.21;82.78
84703;BME280;74927;50.988;11.318;2024-01-07T06:51:56;99366.53;;;-1.19;82.06
84703;BME280;74927;50.988;11.318;2024-01-07T06:54:21;99372.41;;;-1.06;82.36
84703;BME280;74927;50.988;11.318;2024-01-07T06:56:46;99379.53;;;-1.29;82.37
84703;BME280;74927;50.988;11.318;2024-01-07T06:59:12;99376.06;;;-1.16;82.77
84703;BME280;74927;50.988;11.318;2024-01-07T07:01:37;99380.75;;;-1.09;83.39
84703;BME280;74927;50.988;11.318;2024-01-07T07:04:04;99385.06;;;-1.08;82.25
84703;BME280;74927;50.988;11.318;2024-01-07T07:06:29;99396.44;;;-1.03;82.28
84703;BME280;74927;50.988;11.318;2024-01-07T07:08:55;99393.69;;;-1.06;82.19
84703;BME280;74927;50.988;11.318;2024-01-07T07:11:20;99395.75;;;-1.00;82.17
84703;BME280;74927;50.988;11.318;2024-01-07T07:13:46;99408.16;;;-1.20;81.87
84703;BME280;74927;50.988;11.318;2024-01-07T07:16:11;99411.69;;;-1.18;81.15
84703;BME280;74927;50.988;11.318;2024-01-07T07:18:37;99408.16;;;-1.20;82.13
84703;BME280;74927;50.988;11.318;2024-01-07T07:21:03;99414.97;;;-1.05;82.79
84703;BME280;74927;50.988;11.318;2024-01-07T07:23:28;99415.78;;;-1.06;81.57
84703;BME280;74927;50.988;11.318;2024-01-07T07:25:54;99411.84;;;-1.01;82.47
84703;BME280;74927;50.988;11.318;2024-01-07T07:28:19;99420.41;;;-1.14;82.04
84703;BME280;74927;50.988;11.318;2024-01-07T07:30:45;99424.91;;;-1.10;82.88
84703;BME280;74927;50.988;11.318;2024-01-07T07:33:10;99427.22;;;-1.00;82.72
84703;BME280;74927;50.988;11.318;2024-01-07T07:35:35;99430.78;;;-1.11;81.53
84703;BME280;74927;50.988;11.318;2024-01-07T07:38:04;99429.41;;;-1.06;81.87
84703;BME280;74927;50.988;11.318;2024-01-07T07:40:30;99436.00;;;-1.23;82.63
84703;BME280;74927;50.988;11.318;2024-01-07T07:42:55;99397.78;;;-1.49;82.67
84703;BME280;74927;50.988;11.318;2024-01-07T07:45:21;99443.88;;;-1.20;82.60
84703;BME280;74927;50.988;11.318;2024-01-07T07:47:46;99450.72;;;-1.32;82.21
84703;BME280;74927;50.988;11.318;2024-01-07T07:50:12;99454.56;;;-1.39;82.24
84703;BME280;74927;50.988;11.318;2024-01-07T07:52:37;99456.25;;;-1.26;82.41
84703;BME280;74927;50.988;11.318;2024-01-07T07:55:03;99462.88;;;-1.28;81.99
84703;BME280;74927;50.988;11.318;2024-01-07T07:57:28;99458.38;;;-1.19;82.55
84703;BME280;74927;50.988;11.318;2024-01-07T07:59:54;99458.09;;;-1.10;82.92
84703;BME280;74927;50.988;11.318;2024-01-07T08:02:20;99460.84;;;-1.07;82.56
84703;BME280;74927;50.988;11.318;2024-01-07T08:04:46;99466.22;;;-1.02;80.81
84703;BME280;74927;50.988;11.318;2024-01-07T08:07:12;99464.38;;;-1.05;81.80
84703;BME280;74927;50.988;11.318;2024-01-07T08:09:37;99472.28;;;-1.00;81.13
84703;BME280;74927;50.988;11.318;2024-01-07T08:12:06;99482.50;;;-1.13;82.70
84703;BME280;74927;50.988;11.318;2024-01-07T08:14:32;99491.66;;;-1.30;83.68
84703;BME280;74927;50.988;11.318;2024-01-07T08:16:58;99493.13;;;-1.34;82.80
84703;BME280;74927;50.988;11.318;2024-01-07T08:19:24;99499.09;;;-1.33;83.83
84703;BME280;74927;50.988;11.318;2024-01-07T08:21:49;99494.31;;;-1.29;82.15
84703;BME280;74927;50.988;11.318;2024-01-07T08:24:14;99503.63;;;-1.29;82.65
84703;BME280;74927;50.988;11.318;2024-01-07T08:26:40;99504.28;;;-1.32;81.63
84703;BME280;74927;50.988;11.318;2024-01-07T08:29:05;99497.94;;;-1.39;81.55
84703;BME280;74927;50.988;11.318;2024-01-07T08:31:31;99506.72;;;-1.60;82.81
84703;BME280;74927;50.988;11.318;2024-01-07T08:33:57;99510.19;;;-1.46;81.60
84703;BME280;74927;50.988;11.318;2024-01-07T08:36:23;99505.59;;;-1.39;80.72
84703;BME280;74927;50.988;11.318;2024-01-07T08:38:48;99508.41;;;-1.34;80.01
84703;BME280;74927;50.988;11.318;2024-01-07T08:41:17;99511.06;;;-1.46;79.01
84703;BME280;74927;50.988;11.318;2024-01-07T08:43:43;99510.13;;;-1.60;79.62
84703;BME280;74927;50.988;11.318;2024-01-07T08:46:10;99510.72;;;-1.64;80.36
84703;BME280;74927;50.988;11.318;2024-01-07T08:48:35;99515.72;;;-1.65;81.37
84703;BME280;74927;50.988;11.318;2024-01-07T08:51:01;99525.38;;;-1.48;81.21
84703;BME280;74927;50.988;11.318;2024-01-07T08:53:26;99530.19;;;-1.39;80.96
84703;BME280;74927;50.988;11.318;2024-01-07T08:55:52;99533.81;;;-1.35;80.52
84703;BME280;74927;50.988;11.318;2024-01-07T08:58:17;99531.16;;;-1.37;79.38
84703;BME280;74927;50.988;11.318;2024-01-07T09:00:43;99530.97;;;-1.40;79.26
84703;BME280;74927;50.988;11.318;2024-01-07T09:03:09;99533.41;;;-1.42;79.38
84703;BME280;74927;50.988;11.318;2024-01-07T09:05:35;99536.66;;;-1.44;79.33
84703;BME280;74927;50.988;11.318;2024-01-07T09:08:01;99542.66;;;-1.44;79.21
84703;BME280;74927;50.988;11.318;2024-01-07T09:10:27;99547.03;;;-1.54;78.95
84703;BME280;74927;50.988;11.318;2024-01-07T09:12:53;99561.56;;;-1.53;79.20
84703;BME280;74927;50.988;11.318;2024-01-07T09:15:19;99550.09;;;-1.47;79.96
84703;BME280;74927;50.988;11.318;2024-01-07T09:17:45;99565.69;;;-1.42;79.73
84703;BME280;74927;50.988;11.318;2024-01-07T09:20:11;99570.69;;;-1.44;79.08
84703;BME280;74927;50.988;11.318;2024-01-07T09:22:37;99570.47;;;-1.47;78.60
84703;BME280;74927;50.988;11.318;2024-01-07T09:25:03;99568.84;;;-1.46;79.47
84703;BME280;74927;50.988;11.318;2024-01-07T09:27:29;99568.78;;;-1.60;79.02
84703;BME280;74927;50.988;11.318;2024-01-07T09:29:55;99570.75;;;-1.69;80.24
84703;BME280;74927;50.988;11.318;2024-01-07T09:32:20;99570.94;;;-1.66;79.93
84703;BME280;74927;50.988;11.318;2024-01-07T09:34:46;99573.09;;;-1.59;79.63
84703;BME280;74927;50.988;11.318;2024-01-07T09:37:11;99584.53;;;-1.65;78.73
84703;BME280;74927;50.988;11.318;2024-01-07T09:39:40;99584.97;;;-1.84;79.73
84703;BME280;74927;50.988;11.318;2024-01-07T09:42:17;99587.28;;;-2.01;80.43
84703;BME280;74927;50.988;11.318;2024-01-07T09:44:43;99585.66;;;-1.87;80.69
84703;BME280;74927;50.988;11.318;2024-01-07T09:47:13;99592.44;;;-1.87;80.03
84703;BME280;74927;50.988;11.318;2024-01-07T09:49:42;99599.63;;;-1.93;80.65
84703;BME280;74927;50.988;11.318;2024-01-07T09:52:10;99600.25;;;-1.84;79.83
84703;BME280;74927;50.988;11.318;2024-01-07T09:54:36;99606.75;;;-2.01;80.33
84703;BME280;74927;50.988;11.318;2024-01-07T09:57:04;99603.22;;;-2.03;78.85
84703;BME280;74927;50.988;11.318;2024-01-07T09:59:32;99599.75;;;-2.17;79.63
84703;BME280;74927;50.988;11.318;2024-01-07T10:01:57;99601.03;;;-2.10;79.26
84703;BME280;74927;50.988;11.318;2024-01-07T10:04:24;99609.25;;;-2.15;78.63
84703;BME280;74927;50.988;11.318;2024-01-07T10:06:50;99606.81;;;-2.13;79.23
84703;BME280;74927;50.988;11.318;2024-01-07T10:09:17;99608.22;;;-2.05;78.84
84703;BME280;74927;50.988;11.318;2024-01-07T10:11:45;99602.00;;;-1.97;77.65
84703;BME280;74927;50.988;11.318;2024-01-07T10:14:11;99602.06;;;-1.83;78.29
84703;BME280;74927;50.988;11.318;2024-01-07T10:16:36;99603.81;;;-1.82;77.39
84703;BME280;74927;50.988;11.318;2024-01-07T10:19:02;99598.09;;;-1.91;76.57
84703;BME280;74927;50.988;11.318;2024-01-07T10:21:27;99601.19;;;-1.84;77.60
84703;BME280;74927;50.988;11.318;2024-01-07T10:24:12;99596.47;;;-1.78;77.33
84703;BME280;74927;50.988;11.318;2024-01-07T10:26:39;99597.28;;;-1.65;76.37
84703;BME280;74927;50.988;11.318;2024-01-07T10:29:05;99596.69;;;-1.74;75.91
84703;BME280;74927;50.988;11.318;2024-01-07T10:31:34;99595.91;;;-1.73;76.07
84703;BME280;74927;50.988;11.318;2024-01-07T10:33:59;99604.53;;;-1.97;77.29
84703;BME280;74927;50.988;11.318;2024-01-07T10:36:25;99612.03;;;-1.86;75.68
84703;BME280;74927;50.988;11.318;2024-01-07T10:38:51;99603.97;;;-1.92;75.76
84703;BME280;74927;50.988;11.318;2024-01-07T10:41:18;99616.53;;;-2.07;75.42
84703;BME280;74927;50.988;11.318;2024-01-07T10:43:47;99614.28;;;-1.91;76.56
84703;BME280;74927;50.988;11.318;2024-01-07T10:46:13;99614.22;;;-2.04;76.93
84703;BME280;74927;50.988;11.318;2024-01-07T10:49:04;99615.38;;;-1.99;75.69
84703;BME280;74927;50.988;11.318;2024-01-07T10:51:29;99621.81;;;-1.92;76.05
84703;BME280;74927;50.988;11.318;2024-01-07T10:53:58;99618.31;;;-1.81;75.29
84703;BME280;74927;50.988;11.318;2024-01-07T10:56:25;99628.56;;;-1.93;75.87
84703;BME280;74927;50.988;11.318;2024-01-07T10:58:55;99622.31;;;-1.85;75.40
84703;BME280;74927;50.988;11.318;2024-01-07T11:01:21;99618.69;;;-1.88;75.19
84703;BME280;74927;50.988;11.318;2024-01-07T11:04:10;99620.94;;;-1.93;73.20
84703;BME280;74927;50.988;11.318;2024-01-07T11:06:45;99622.41;;;-2.08;74.74
84703;BME280;74927;50.988;11.318;2024-01-07T11:11:39;99620.63;;;-2.09;75.01
84703;BME280;74927;50.988;11.318;2024-01-07T11:17:12;99621.28;;;-1.75;75.15
84703;BME280;74927;50.988;11.318;2024-01-07T11:19:49;99623.25;;;-1.71;73.97
84703;BME280;74927;50.988;11.318;2024-01-07T11:22:22;99618.22;;;-1.83;74.47
84703;BME280;74927;50.988;11.318;2024-01-07T11:24:59;99619.00;;;-1.84;74.82
84703;BME280;74927;50.988;11.318;2024-01-07T11:27:28;99621.09;;;-1.78;74.66
84703;BME280;74927;50.988;11.318;2024-01-07T11:29:57;99629.44;;;-1.67;73.94
84703;BME280;74927;50.988;11.318;2024-01-07T11:32:24;99631.06;;;-1.81;72.63
84703;BME280;74927;50.988;11.318;2024-01-07T11:34:53;99632.28;;;-1.88;75.05
84703;BME280;74927;50.988;11.318;2024-01-07T11:37:19;99629.84;;;-1.74;74.32
84703;BME280;74927;50.988;11.318;2024-01-07T11:39:47;99634.03;;;-1.75;73.14
84703;BME280;74927;50.988;11.318;2024-01-07T11:42:13;99627.69;;;-1.68;73.17
84703;BME280;74927;50.988;11.318;2024-01-07T11:44:48;99635.59;;;-1.77;72.92
84703;BME280;74927;50.988;11.318;2024-01-07T11:47:17;99633.03;;;-1.77;72.74
84703;BME280;74927;50.988;11.318;2024-01-07T11:49:46;99638.59;;;-1.83;71.05
84703;BME280;74927;50.988;11.318;2024-01-07T11:52:12;99640.22;;;-1.97;71.63
84703;BME280;74927;50.988;11.318;2024-01-07T11:54:38;99642.69;;;-2.10;72.21
84703;BME280;74927;50.988;11.318;2024-01-07T11:57:07;99640.06;;;-1.86;72.01
84703;BME280;74927;50.988;11.318;2024-01-07T11:59:34;99637.44;;;-1.63;71.38
84703;BME280;74927;50.988;11.318;2024-01-07T12:02:00;99641.59;;;-1.51;71.39
84703;BME280;74927;50.988;11.318;2024-01-07T12:04:26;99633.13;;;-1.50;70.56
84703;BME280;74927;50.988;11.318;2024-01-07T12:06:52;99630.91;;;-1.71;71.18
84703;BME280;74927;50.988;11.318;2024-01-07T12:09:17;99642.69;;;-1.48;71.25
84703;BME280;74927;50.988;11.318;2024-01-07T12:11:44;99642.84;;;-1.45;70.19
84703;BME280;74927;50.988;11.318;2024-01-07T12:14:09;99639.28;;;-1.35;71.40
84703;BME280;74927;50.988;11.318;2024-01-07T12:16:36;99642.13;;;-1.30;69.53
84703;BME280;74927;50.988;11.318;2024-01-07T12:19:02;99635.31;;;-1.43;70.10
84703;BME280;74927;50.988;11.318;2024-01-07T12:21:28;99639.41;;;-1.59;69.98
84703;BME280;74927;50.988;11.318;2024-01-07T12:23:55;99634.28;;;-1.59;71.15
84703;BME280;74927;50.988;11.318;2024-01-07T12:26:26;99636.38;;;-1.53;71.90
84703;BME280;74927;50.988;11.318;2024-01-07T12:28:58;99642.06;;;-1.57;71.66
84703;BME280;74927;50.988;11.318;2024-01-07T12:31:29;99642.56;;;-1.49;71.16
84703;BME280;74927;50.988;11.318;2024-01-07T12:33:56;99637.34;;;-1.26;71.21
84703;BME280;74927;50.988;11.318;2024-01-07T12:36:22;99643.16;;;-1.53;70.59
84703;BME280;74927;50.988;11.318;2024-01-07T12:38:48;99643.19;;;-1.40;69.62
84703;BME280;74927;50.988;11.318;2024-01-07T12:41:13;99648.69;;;-1.34;68.06
84703;BME280;74927;50.988;11.318;2024-01-07T12:43:39;99651.47;;;-1.31;68.16
84703;BME280;74927;50.988;11.318;2024-01-07T12:46:04;99656.41;;;-1.46;68.02
84703;BME280;74927;50.988;11.318;2024-01-07T12:48:31;99659.69;;;-1.35;69.75
84703;BME280;74927;50.988;11.318;2024-01-07T12:50:57;99657.91;;;-1.36;69.67
84703;BME280;74927;50.988;11.318;2024-01-07T12:53:23;99667.66;;;-1.55;69.16